Time;durP1;ratioP1;P1;durP2;ratioP2;P2;SDS_P1;SDS_P2;PMS_P1;PMS_P2;Temp;Humidity;BMP_temperature;BMP_pressure;BME280_temperature;BME280_humidity;BME280_pressure;Samples;Min_cycle;Max_cycle;Signal;HPM_P1;HPM_P2
2023/09/04 00:02:24;;;;;;;;;;;22.90;71.10;;;;;;5095087;28;20637;-76
2023/09/04 00:04:51;;;;;;;;;;;23.00;70.90;;;;;;5094399;28;20452;-77
2023/09/04 00:07:17;;;;;;;;;;;23.00;69.50;;;;;;5095213;28;19904;-78
2023/09/04 00:09:43;;;;;;;;;;;23.10;69.40;;;;;;5093987;28;19907;-76
2023/09/04 00:12:08;;;;;;;;;;;23.00;70.10;;;;;;5093652;28;20298;-78
2023/09/04 00:14:34;;;;;;;;;;;23.00;69.60;;;;;;5095601;28;19911;-79
2023/09/04 00:16:59;;;;;;;;;;;23.00;69.50;;;;;;5094899;28;20364;-78
2023/09/04 00:19:25;;;;;;;;;;;23.00;70.30;;;;;;5095185;28;20387;-79
2023/09/04 00:21:50;;;;;;;;;;;23.00;69.30;;;;;;5094058;28;19911;-76
2023/09/04 00:24:17;;;;;;;;;;;23.00;68.40;;;;;;5095257;28;19958;-78
2023/09/04 00:26:42;;;;;;;;;;;22.90;69.60;;;;;;5094973;28;19908;-79
2023/09/04 00:29:08;;;;;;;;;;;23.00;68.60;;;;;;5095499;28;19975;-74
2023/09/04 00:31:34;;;;;;;;;;;23.00;68.90;;;;;;5094852;28;20359;-83
2023/09/04 00:34:00;;;;;;;;;;;23.00;68.10;;;;;;5094150;28;19908;-77
2023/09/04 00:36:25;;;;;;;;;;;23.10;68.90;;;;;;5098082;28;20392;-79
2023/09/04 00:38:51;;;;;;;;;;;23.10;68.10;;;;;;5098951;28;19915;-78
2023/09/04 00:41:18;;;;;;;;;;;23.10;68.00;;;;;;5098844;28;19908;-78
2023/09/04 00:43:44;;;;;;;;;;;23.10;67.20;;;;;;5098925;28;19908;-77
2023/09/04 00:46:10;;;;;;;;;;;23.20;67.00;;;;;;5098526;28;19999;-78
2023/09/04 00:48:36;;;;;;;;;;;23.20;68.10;;;;;;5097695;28;19904;-78
2023/09/04 00:51:01;;;;;;;;;;;23.10;67.00;;;;;;5098797;28;19908;-78
2023/09/04 00:53:27;;;;;;;;;;;23.20;67.20;;;;;;5098920;28;19904;-77
2023/09/04 00:55:53;;;;;;;;;;;23.20;67.20;;;;;;5097335;28;19943;-77
2023/09/04 00:58:18;;;;;;;;;;;23.30;65.40;;;;;;5098705;28;19912;-76
2023/09/04 01:00:44;;;;;;;;;;;23.30;67.70;;;;;;5098734;28;20037;-75
2023/09/04 01:03:11;;;;;;;;;;;23.20;66.80;;;;;;5098523;28;19908;-75
2023/09/04 01:05:36;;;;;;;;;;;23.20;67.00;;;;;;5098450;28;19904;-76
2023/09/04 01:08:04;;;;;;;;;;;23.10;67.50;;;;;;5098702;28;19979;-76
2023/09/04 01:10:37;;;;;;;;;;;23.10;67.10;;;;;;5097073;28;19904;-77
2023/09/04 01:13:34;;;;;;;;;;;23.10;65.80;;;;;;5097099;28;19927;-78
2023/09/04 01:16:01;;;;;;;;;;;23.10;66.30;;;;;;5063968;28;19908;-77
2023/09/04 01:18:28;;;;;;;;;;;23.20;65.90;;;;;;5093650;28;19912;-76
2023/09/04 01:21:00;;;;;;;;;;;23.10;64.30;;;;;;5092134;28;20285;-77
2023/09/04 01:23:26;;;;;;;;;;;23.10;65.20;;;;;;5095951;28;19911;-78
2023/09/04 01:25:59;;;;;;;;;;;23.10;64.60;;;;;;5098683;28;20333;-78
2023/09/04 01:28:45;;;;;;;;;;;23.20;66.70;;;;;;5097707;28;19977;-77
2023/09/04 01:31:43;;;;;;;;;;;23.10;65.00;;;;;;5097265;28;20029;-77
2023/09/04 01:34:10;;;;;;;;;;;23.20;64.90;;;;;;5062695;28;19904;-79
2023/09/04 01:36:36;;;;;;;;;;;23.10;64.60;;;;;;5091138;28;19912;-77
2023/09/04 01:39:03;;;;;;;;;;;23.10;64.80;;;;;;5090599;28;20354;-76
2023/09/04 01:41:28;;;;;;;;;;;23.10;65.70;;;;;;5097978;28;20336;-77
2023/09/04 01:43:54;;;;;;;;;;;23.10;65.40;;;;;;5097778;28;19911;-76
2023/09/04 01:46:20;;;;;;;;;;;23.00;65.10;;;;;;5095165;28;19994;-79
2023/09/04 01:48:47;;;;;;;;;;;23.10;65.30;;;;;;5096190;28;20312;-77
2023/09/04 01:51:12;;;;;;;;;;;23.10;66.00;;;;;;5097795;28;19911;-77
2023/09/04 01:53:38;;;;;;;;;;;23.00;65.30;;;;;;5092464;28;20580;-79
2023/09/04 01:56:03;;;;;;;;;;;23.10;64.60;;;;;;5097617;28;19915;-77
2023/09/04 01:58:29;;;;;;;;;;;23.00;65.80;;;;;;5096277;28;19915;-77
2023/09/04 02:00:55;;;;;;;;;;;23.00;65.50;;;;;;5097150;28;20344;-80
2023/09/04 02:03:20;;;;;;;;;;;22.90;64.50;;;;;;5096303;28;19912;-78
2023/09/04 02:05:46;;;;;;;;;;;22.90;63.90;;;;;;5097115;28;19908;-80
2023/09/04 02:08:11;;;;;;;;;;;22.90;66.00;;;;;;5097371;28;19919;-81
2023/09/04 02:10:37;;;;;;;;;;;22.80;65.10;;;;;;5095961;28;19908;-79
2023/09/04 02:13:03;;;;;;;;;;;22.80;63.90;;;;;;5096939;28;19915;-79
2023/09/04 02:15:29;;;;;;;;;;;22.80;63.20;;;;;;5095993;28;19904;-80
2023/09/04 02:17:54;;;;;;;;;;;22.80;63.50;;;;;;5096972;28;20291;-76
2023/09/04 02:20:20;;;;;;;;;;;22.80;63.10;;;;;;5095828;28;19904;-79
2023/09/04 02:22:45;;;;;;;;;;;22.80;65.10;;;;;;5095229;28;19942;-76
2023/09/04 02:25:11;;;;;;;;;;;22.70;62.50;;;;;;5096835;28;19908;-74
2023/09/04 02:27:36;;;;;;;;;;;22.80;62.40;;;;;;5096105;28;19904;-77
2023/09/04 02:30:03;;;;;;;;;;;22.80;63.20;;;;;;5096668;28;19904;-82
2023/09/04 02:32:29;;;;;;;;;;;22.80;61.90;;;;;;5096720;28;19952;-77
2023/09/04 02:34:55;;;;;;;;;;;22.80;62.50;;;;;;5095578;28;19908;-79
2023/09/04 02:37:20;;;;;;;;;;;22.80;61.30;;;;;;5096938;28;19904;-76
2023/09/04 02:39:46;;;;;;;;;;;22.80;63.10;;;;;;5095368;28;20352;-77
2023/09/04 02:42:11;;;;;;;;;;;22.80;62.10;;;;;;5096589;28;19908;-79
2023/09/04 02:44:37;;;;;;;;;;;22.80;63.20;;;;;;5095899;28;19911;-77
2023/09/04 02:47:02;;;;;;;;;;;22.70;61.60;;;;;;5096336;28;19930;-78
2023/09/04 02:49:28;;;;;;;;;;;22.70;60.50;;;;;;5095455;28;20299;-77
2023/09/04 02:51:53;;;;;;;;;;;22.70;62.60;;;;;;5096679;28;19922;-78
2023/09/04 02:54:19;;;;;;;;;;;22.70;61.70;;;;;;5096009;28;19915;-77
2023/09/04 02:56:44;;;;;;;;;;;22.70;61.10;;;;;;5096142;28;19915;-78
2023/09/04 02:59:10;;;;;;;;;;;22.70;61.70;;;;;;5093358;28;19915;-76
2023/09/04 03:01:35;;;;;;;;;;;22.70;62.40;;;;;;5083830;28;19917;-79
2023/09/04 03:04:01;;;;;;;;;;;22.70;63.00;;;;;;5095981;28;19912;-78
2023/09/04 03:06:26;;;;;;;;;;;22.60;63.90;;;;;;5095796;28;19908;-77
2023/09/04 03:08:52;;;;;;;;;;;22.70;64.20;;;;;;5095668;28;19991;-76
2023/09/04 03:11:17;;;;;;;;;;;22.70;63.80;;;;;;5096124;28;19911;-77
2023/09/04 03:13:43;;;;;;;;;;;22.70;64.90;;;;;;5081138;28;19911;-79
2023/09/04 03:16:08;;;;;;;;;;;22.70;64.80;;;;;;5095994;28;19907;-78
2023/09/04 03:18:34;;;;;;;;;;;22.70;64.60;;;;;;5095732;28;20002;-80
2023/09/04 03:21:02;;;;;;;;;;;22.70;65.60;;;;;;5097286;28;19908;-80
2023/09/04 03:23:28;;;;;;;;;;;22.60;65.00;;;;;;5096853;28;20017;-78
2023/09/04 03:25:54;;;;;;;;;;;22.60;65.90;;;;;;5096409;28;19972;-77
2023/09/04 03:28:20;;;;;;;;;;;22.50;65.10;;;;;;5093360;28;19908;-80
2023/09/04 03:30:46;;;;;;;;;;;22.50;66.10;;;;;;5083630;28;19926;-77
2023/09/04 03:33:11;;;;;;;;;;;22.40;65.90;;;;;;5093818;28;19961;-76
2023/09/04 03:35:37;;;;;;;;;;;22.40;65.40;;;;;;5095897;28;19908;-76
2023/09/04 03:38:03;;;;;;;;;;;22.40;66.30;;;;;;5095717;28;19929;-77
2023/09/04 03:40:29;;;;;;;;;;;22.60;64.90;;;;;;5095876;28;20364;-78
2023/09/04 03:42:55;;;;;;;;;;;22.60;65.60;;;;;;5094213;28;19921;-77
2023/09/04 03:45:21;;;;;;;;;;;22.60;66.00;;;;;;5095541;28;19920;-78
2023/09/04 03:47:47;;;;;;;;;;;22.50;67.70;;;;;;5095155;28;19957;-79
2023/09/04 03:50:12;;;;;;;;;;;22.50;66.10;;;;;;5091366;28;20349;-77
2023/09/04 03:52:38;;;;;;;;;;;22.40;66.80;;;;;;5095135;28;20756;-77
2023/09/04 03:55:08;;;;;;;;;;;22.40;66.50;;;;;;5088022;28;19911;-76
2023/09/04 03:57:35;;;;;;;;;;;22.50;67.10;;;;;;5091274;28;19916;-77
2023/09/04 04:00:01;;;;;;;;;;;22.40;67.10;;;;;;5095359;28;19951;-78
2023/09/04 04:02:27;;;;;;;;;;;22.40;67.20;;;;;;5094810;28;19911;-78
2023/09/04 04:04:52;;;;;;;;;;;22.30;67.60;;;;;;5095480;28;19914;-81
2023/09/04 04:07:18;;;;;;;;;;;22.30;67.90;;;;;;5094253;28;20375;-81
2023/09/04 04:09:44;;;;;;;;;;;22.30;67.80;;;;;;5085197;28;19951;-76
2023/09/04 04:12:10;;;;;;;;;;;22.30;68.40;;;;;;5099611;28;19918;-79
2023/09/04 04:14:36;;;;;;;;;;;22.30;68.00;;;;;;5098265;28;20454;-78
2023/09/04 04:17:01;;;;;;;;;;;22.30;68.20;;;;;;5097844;28;19961;-76
2023/09/04 04:19:27;;;;;;;;;;;22.30;68.40;;;;;;5097880;28;19946;-77
2023/09/04 04:21:53;;;;;;;;;;;22.30;69.10;;;;;;5099299;28;19904;-76
2023/09/04 04:24:19;;;;;;;;;;;22.20;68.70;;;;;;5099259;28;19990;-76
2023/09/04 04:26:45;;;;;;;;;;;22.20;67.80;;;;;;5098985;28;20423;-78
2023/09/04 04:29:10;;;;;;;;;;;22.30;67.90;;;;;;5099252;28;20238;-77
2023/09/04 04:31:36;;;;;;;;;;;22.30;68.60;;;;;;5097397;28;19908;-76
2023/09/04 04:34:02;;;;;;;;;;;22.20;68.80;;;;;;5099247;28;19908;-77
2023/09/04 04:36:27;;;;;;;;;;;22.20;69.90;;;;;;5098912;28;19919;-79
2023/09/04 04:38:53;;;;;;;;;;;22.20;68.90;;;;;;5097860;28;19912;-77
2023/09/04 04:41:18;;;;;;;;;;;22.20;69.20;;;;;;5098914;28;19912;-76
2023/09/04 04:43:44;;;;;;;;;;;22.20;69.50;;;;;;5099075;28;19908;-76
2023/09/04 04:46:12;;;;;;;;;;;22.10;69.90;;;;;;5097109;28;20387;-77
2023/09/04 04:48:38;;;;;;;;;;;22.20;69.50;;;;;;5099062;28;19908;-78
2023/09/04 04:51:04;;;;;;;;;;;22.20;70.40;;;;;;5098916;28;19904;-79
2023/09/04 04:53:29;;;;;;;;;;;22.20;70.60;;;;;;5098750;28;19965;-75
2023/09/04 04:55:55;;;;;;;;;;;22.20;71.50;;;;;;5098675;28;19904;-77
2023/09/04 04:58:21;;;;;;;;;;;22.10;71.90;;;;;;5097161;28;20334;-77
2023/09/04 05:00:46;;;;;;;;;;;22.10;72.40;;;;;;5098532;28;19950;-77
2023/09/04 05:03:12;;;;;;;;;;;22.10;72.70;;;;;;5089535;28;19931;-77
2023/09/04 05:05:43;;;;;;;;;;;22.10;73.40;;;;;;5093102;28;19952;-76
2023/09/04 05:08:08;;;;;;;;;;;22.10;74.30;;;;;;5098889;28;19933;-81
2023/09/04 05:10:34;;;;;;;;;;;22.00;74.60;;;;;;5098360;28;20368;-78
2023/09/04 05:12:59;;;;;;;;;;;22.00;74.80;;;;;;5097362;28;19911;-79
2023/09/04 05:15:25;;;;;;;;;;;22.00;75.60;;;;;;5098031;28;19919;-79
2023/09/04 05:17:50;;;;;;;;;;;22.10;76.40;;;;;;5097923;28;19912;-78
2023/09/04 05:20:16;;;;;;;;;;;22.10;76.60;;;;;;5098238;28;19950;-77
2023/09/04 05:22:41;;;;;;;;;;;22.00;76.60;;;;;;5098392;28;20057;-79
2023/09/04 05:25:08;;;;;;;;;;;22.00;78.10;;;;;;5084746;28;19953;-78
2023/09/04 05:27:33;;;;;;;;;;;22.00;78.60;;;;;;5098109;28;19908;-81
2023/09/04 05:29:59;;;;;;;;;;;21.90;80.00;;;;;;5098028;28;20003;-78
2023/09/04 05:32:24;;;;;;;;;;;21.90;80.40;;;;;;5097975;28;19904;-78
2023/09/04 05:34:53;;;;;;;;;;;21.90;81.40;;;;;;5096671;28;19904;-76
2023/09/04 05:37:19;;;;;;;;;;;21.90;82.40;;;;;;5097934;28;20332;-76
2023/09/04 05:39:44;;;;;;;;;;;21.90;83.50;;;;;;5097923;28;19927;-79
2023/09/04 05:42:10;;;;;;;;;;;21.90;84.40;;;;;;5096650;28;20410;-76
2023/09/04 05:44:35;;;;;;;;;;;22.10;84.40;;;;;;5096251;28;20003;-76
2023/09/04 05:47:01;;;;;;;;;;;22.20;84.40;;;;;;5097410;28;19911;-75
2023/09/04 05:49:27;;;;;;;;;;;22.20;85.40;;;;;;5097750;28;19904;-79
2023/09/04 05:51:54;;;;;;;;;;;22.20;86.40;;;;;;5097939;28;19977;-77
2023/09/04 05:54:20;;;;;;;;;;;22.30;86.10;;;;;;5097527;28;19911;-76
2023/09/04 05:56:45;;;;;;;;;;;22.30;86.30;;;;;;5097689;28;19904;-78
2023/09/04 05:59:11;;;;;;;;;;;22.30;87.70;;;;;;5095341;28;20486;-75
2023/09/04 06:01:37;;;;;;;;;;;22.40;88.40;;;;;;5097443;28;20007;-77
2023/09/04 06:04:02;;;;;;;;;;;22.30;90.20;;;;;;5096153;28;19939;-79
2023/09/04 06:06:28;;;;;;;;;;;22.40;90.50;;;;;;5097541;28;19904;-77
2023/09/04 06:08:54;;;;;;;;;;;22.40;91.20;;;;;;5097430;28;19904;-79
2023/09/04 06:11:20;;;;;;;;;;;22.50;91.90;;;;;;5097316;28;20383;-81
2023/09/04 06:13:45;;;;;;;;;;;22.60;92.00;;;;;;5090670;28;19908;-79
2023/09/04 06:16:12;;;;;;;;;;;22.70;92.50;;;;;;5097328;28;19915;-77
2023/09/04 06:18:38;;;;;;;;;;;22.70;92.70;;;;;;5097079;28;20365;-78
2023/09/04 06:21:03;;;;;;;;;;;22.70;93.40;;;;;;5095536;28;19951;-79
2023/09/04 06:23:29;;;;;;;;;;;22.80;93.20;;;;;;5095695;28;19939;-76
2023/09/04 06:25:54;;;;;;;;;;;22.80;93.60;;;;;;5096929;28;19908;-77
2023/09/04 06:28:20;;;;;;;;;;;22.90;93.30;;;;;;5097126;28;19908;-77
2023/09/04 06:30:46;;;;;;;;;;;23.00;93.00;;;;;;5096870;28;19904;-78
2023/09/04 06:33:11;;;;;;;;;;;23.00;93.60;;;;;;5081031;28;19955;-76
2023/09/04 06:35:37;;;;;;;;;;;23.10;93.60;;;;;;5097154;28;19946;-78
2023/09/04 06:38:03;;;;;;;;;;;23.10;93.80;;;;;;5096597;28;19912;-78
2023/09/04 06:40:29;;;;;;;;;;;23.20;93.50;;;;;;5092608;28;20386;-78
2023/09/04 06:42:54;;;;;;;;;;;23.20;93.40;;;;;;5076355;28;19908;-80
2023/09/04 06:45:20;;;;;;;;;;;23.30;93.10;;;;;;5081848;28;19915;-77
2023/09/04 06:47:46;;;;;;;;;;;23.30;93.70;;;;;;5084882;28;19913;-77
2023/09/04 06:50:11;;;;;;;;;;;23.40;93.00;;;;;;5089726;28;19916;-77
2023/09/04 06:52:37;;;;;;;;;;;23.40;93.40;;;;;;5086278;28;19910;-75
2023/09/04 06:55:03;;;;;;;;;;;23.50;93.20;;;;;;5081908;28;19995;-76
2023/09/04 06:57:28;;;;;;;;;;;23.50;93.10;;;;;;5089400;28;20410;-77
2023/09/04 06:59:55;;;;;;;;;;;23.60;92.90;;;;;;5087825;28;19904;-76
2023/09/04 07:02:20;;;;;;;;;;;23.60;93.00;;;;;;5082803;28;19904;-79
2023/09/04 07:04:46;;;;;;;;;;;23.70;92.40;;;;;;5084141;28;20011;-77
2023/09/04 07:07:11;;;;;;;;;;;23.70;92.90;;;;;;5084893;28;20371;-78
2023/09/04 07:09:37;;;;;;;;;;;23.70;92.40;;;;;;5090256;28;20391;-77
2023/09/04 07:12:03;;;;;;;;;;;23.80;93.10;;;;;;5095962;28;19904;-74
2023/09/04 07:14:29;;;;;;;;;;;23.80;92.50;;;;;;5091540;28;19907;-76
2023/09/04 07:16:54;;;;;;;;;;;23.90;91.70;;;;;;5094589;28;19911;-77
2023/09/04 07:19:20;;;;;;;;;;;24.00;92.10;;;;;;5088951;28;19915;-78
2023/09/04 07:21:45;;;;;;;;;;;24.00;92.00;;;;;;5084734;28;19930;-77
2023/09/04 07:24:11;;;;;;;;;;;24.10;92.40;;;;;;5086022;28;19937;-77
2023/09/04 07:26:36;;;;;;;;;;;24.10;91.80;;;;;;5095851;28;19912;-76
2023/09/04 07:29:02;;;;;;;;;;;24.20;92.40;;;;;;5089022;28;20323;-78
2023/09/04 07:31:28;;;;;;;;;;;24.30;92.00;;;;;;5083248;28;19904;-77
2023/09/04 07:33:54;;;;;;;;;;;24.40;92.20;;;;;;5095413;28;19939;-73
2023/09/04 07:36:20;;;;;;;;;;;24.40;92.00;;;;;;5097240;28;19912;-76
2023/09/04 07:38:46;;;;;;;;;;;24.40;91.70;;;;;;5082529;28;19961;-79
2023/09/04 07:41:11;;;;;;;;;;;24.60;91.90;;;;;;5096560;28;20315;-79
2023/09/04 07:43:37;;;;;;;;;;;24.60;91.90;;;;;;5095842;28;19908;-75
2023/09/04 07:46:03;;;;;;;;;;;24.70;92.00;;;;;;5094148;28;19916;-76
2023/09/04 07:48:29;;;;;;;;;;;24.80;90.90;;;;;;5086505;28;19908;-75
2023/09/04 07:50:56;;;;;;;;;;;24.80;90.60;;;;;;5081985;28;19908;-77
2023/09/04 07:53:22;;;;;;;;;;;24.90;90.30;;;;;;5089023;28;20360;-79
2023/09/04 07:55:48;;;;;;;;;;;24.90;89.80;;;;;;5088630;28;19912;-75
2023/09/04 07:58:14;;;;;;;;;;;25.00;90.50;;;;;;5095086;28;19915;-81
2023/09/04 08:00:45;;;;;;;;;;;25.00;89.20;;;;;;5095581;28;19947;-81
2023/09/04 08:03:11;;;;;;;;;;;25.00;90.70;;;;;;5082795;28;19908;-78
2023/09/04 08:05:37;;;;;;;;;;;25.10;89.10;;;;;;5094322;28;19954;-75
2023/09/04 08:08:07;;;;;;;;;;;25.10;90.10;;;;;;5094164;28;20022;-78
2023/09/04 08:10:34;;;;;;;;;;;25.20;90.20;;;;;;5095518;28;19907;-77
2023/09/04 08:12:59;;;;;;;;;;;25.20;90.00;;;;;;5084093;28;19908;-76
2023/09/04 08:15:25;;;;;;;;;;;25.30;90.10;;;;;;5085889;28;19908;-76
2023/09/04 08:17:50;;;;;;;;;;;25.30;90.20;;;;;;5081656;28;20427;-83
2023/09/04 08:20:16;;;;;;;;;;;25.40;90.10;;;;;;5085878;28;19919;-81
2023/09/04 08:22:41;;;;;;;;;;;25.40;88.30;;;;;;5093604;28;19914;-82
2023/09/04 08:25:08;;;;;;;;;;;25.40;88.60;;;;;;5085378;28;20309;-81
2023/09/04 08:27:34;;;;;;;;;;;25.50;90.00;;;;;;5084947;28;19912;-78
2023/09/04 08:29:59;;;;;;;;;;;25.60;89.40;;;;;;5088473;28;19911;-78
2023/09/04 08:32:25;;;;;;;;;;;25.60;87.30;;;;;;5090915;28;19955;-77
2023/09/04 08:34:51;;;;;;;;;;;25.60;87.60;;;;;;5092709;28;19925;-80
2023/09/04 08:37:16;;;;;;;;;;;25.70;86.80;;;;;;5089130;28;19955;-83
2023/09/04 08:39:42;;;;;;;;;;;25.80;85.10;;;;;;5092257;28;19920;-76
2023/09/04 08:42:08;;;;;;;;;;;25.80;87.80;;;;;;5091116;28;19957;-76
2023/09/04 08:44:36;;;;;;;;;;;25.90;88.90;;;;;;5090012;28;20264;-75
2023/09/04 08:47:02;;;;;;;;;;;26.00;87.80;;;;;;5092040;28;19916;-76
2023/09/04 08:49:28;;;;;;;;;;;26.10;85.80;;;;;;5088644;28;19916;-75
2023/09/04 08:51:55;;;;;;;;;;;26.10;82.80;;;;;;5085899;28;19919;-77
2023/09/04 08:54:20;;;;;;;;;;;26.20;83.30;;;;;;5091242;28;19916;-77
2023/09/04 08:56:46;;;;;;;;;;;26.30;83.30;;;;;;5089748;28;19953;-74
2023/09/04 08:59:11;;;;;;;;;;;26.40;82.50;;;;;;5097445;28;19916;-76
2023/09/04 09:01:37;;;;;;;;;;;26.50;82.60;;;;;;5091957;28;19911;-75
2023/09/04 09:04:04;;;;;;;;;;;26.50;80.80;;;;;;5088443;28;19973;-76
2023/09/04 09:06:30;;;;;;;;;;;26.50;82.70;;;;;;5089073;28;19908;-75
2023/09/04 09:08:56;;;;;;;;;;;26.70;82.70;;;;;;5097017;28;20410;-76
2023/09/04 09:11:22;;;;;;;;;;;26.80;82.00;;;;;;5088972;28;19912;-76
2023/09/04 09:13:47;;;;;;;;;;;26.90;78.40;;;;;;5096260;28;19919;-75
2023/09/04 09:16:17;;;;;;;;;;;26.90;76.10;;;;;;5097354;28;20387;-76
2023/09/04 09:18:42;;;;;;;;;;;26.90;76.70;;;;;;5094820;28;20421;-75
2023/09/04 09:21:25;;;;;;;;;;;27.00;77.80;;;;;;5094303;28;19986;-74
2023/09/04 09:24:09;;;;;;;;;;;27.10;77.20;;;;;;5095358;28;19908;-75
2023/09/04 09:26:34;;;;;;;;;;;27.10;75.10;;;;;;5091171;28;19911;-76
2023/09/04 09:29:03;;;;;;;;;;;27.10;75.50;;;;;;5093999;28;20402;-76
2023/09/04 09:31:29;;;;;;;;;;;27.10;75.70;;;;;;5095292;28;20348;-74
2023/09/04 09:33:55;;;;;;;;;;;27.20;76.00;;;;;;5090089;28;19904;-75
2023/09/04 09:36:21;;;;;;;;;;;27.30;76.50;;;;;;5096963;28;19994;-75
2023/09/04 09:38:46;;;;;;;;;;;27.40;76.00;;;;;;5088970;28;19912;-78
2023/09/04 09:41:15;;;;;;;;;;;27.40;74.00;;;;;;5091651;28;19943;-79
2023/09/04 09:43:41;;;;;;;;;;;27.50;74.20;;;;;;5098324;28;20415;-76
2023/09/04 09:46:08;;;;;;;;;;;27.50;72.70;;;;;;5092016;28;19962;-79
2023/09/04 09:48:34;;;;;;;;;;;27.50;71.60;;;;;;5084523;28;19915;-77
2023/09/04 09:51:00;;;;;;;;;;;27.60;70.90;;;;;;5091162;28;20364;-76
2023/09/04 09:53:26;;;;;;;;;;;27.60;69.50;;;;;;5095694;28;20514;-76
2023/09/04 09:55:52;;;;;;;;;;;27.70;72.10;;;;;;5094499;28;19984;-78
2023/09/04 09:58:18;;;;;;;;;;;27.80;70.20;;;;;;5088933;28;20771;-78
2023/09/04 10:00:43;;;;;;;;;;;27.90;69.90;;;;;;5095242;28;20338;-78
2023/09/04 10:03:09;;;;;;;;;;;27.80;69.20;;;;;;5089760;28;19913;-80
2023/09/04 10:05:35;;;;;;;;;;;27.90;69.10;;;;;;5087447;28;19908;-77
2023/09/04 10:08:02;;;;;;;;;;;28.00;68.20;;;;;;5096125;28;20426;-78
2023/09/04 10:10:30;;;;;;;;;;;28.20;69.10;;;;;;5089874;28;19919;-79
2023/09/04 10:13:00;;;;;;;;;;;28.20;67.60;;;;;;5090675;28;20277;-75
2023/09/04 10:15:26;;;;;;;;;;;28.30;67.30;;;;;;5089614;28;20380;-76
2023/09/04 10:17:58;;;;;;;;;;;28.40;67.50;;;;;;5097318;28;19911;-77
2023/09/04 10:20:25;;;;;;;;;;;28.40;68.00;;;;;;5096961;28;20360;-77
2023/09/04 10:22:52;;;;;;;;;;;28.50;67.40;;;;;;5091500;28;20359;-76
2023/09/04 10:25:18;;;;;;;;;;;28.70;67.70;;;;;;5097344;28;19915;-78
2023/09/04 10:27:49;;;;;;;;;;;28.70;68.10;;;;;;5095570;28;19904;-81
2023/09/04 10:30:17;;;;;;;;;;;28.70;66.90;;;;;;5097146;28;19907;-77
2023/09/04 10:32:43;;;;;;;;;;;28.60;67.80;;;;;;5097139;28;19947;-79
2023/09/04 10:35:09;;;;;;;;;;;28.60;67.80;;;;;;5096791;28;20291;-77
2023/09/04 10:37:37;;;;;;;;;;;28.60;69.40;;;;;;5096922;28;20319;-79
2023/09/04 10:40:05;;;;;;;;;;;28.50;68.40;;;;;;5095532;28;19915;-78
2023/09/04 10:42:33;;;;;;;;;;;28.60;69.90;;;;;;5095503;28;19912;-79
2023/09/04 10:45:10;;;;;;;;;;;28.70;69.70;;;;;;5095379;28;19957;-78
2023/09/04 10:47:42;;;;;;;;;;;28.70;68.60;;;;;;5096615;28;19908;-79
2023/09/04 10:50:25;;;;;;;;;;;28.80;68.50;;;;;;5096799;28;20439;-78
2023/09/04 10:52:50;;;;;;;;;;;28.80;69.30;;;;;;5094347;28;19904;-78
2023/09/04 10:55:17;;;;;;;;;;;28.80;70.00;;;;;;5090585;28;19908;-79
2023/09/04 10:58:02;;;;;;;;;;;28.90;68.70;;;;;;5093070;28;20279;-83
2023/09/04 11:00:29;;;;;;;;;;;29.00;70.00;;;;;;5096516;28;19940;-77
2023/09/04 11:02:54;;;;;;;;;;;29.00;69.00;;;;;;5096458;28;19904;-78
2023/09/04 11:05:20;;;;;;;;;;;29.10;68.70;;;;;;5086382;28;20345;-80
2023/09/04 11:07:46;;;;;;;;;;;29.10;66.30;;;;;;5095101;28;19907;-78
2023/09/04 11:10:14;;;;;;;;;;;29.10;67.50;;;;;;5082653;28;19955;-79
2023/09/04 11:12:40;;;;;;;;;;;29.20;68.60;;;;;;5086190;28;20322;-76
2023/09/04 11:15:12;;;;;;;;;;;29.10;67.20;;;;;;5084464;28;19913;-79
2023/09/04 11:17:39;;;;;;;;;;;29.30;68.40;;;;;;5085188;28;20252;-84
2023/09/04 11:20:05;;;;;;;;;;;29.40;69.50;;;;;;5082769;28;19908;-79
2023/09/04 11:22:32;;;;;;;;;;;29.50;68.60;;;;;;5086523;28;20296;-84
2023/09/04 11:24:57;;;;;;;;;;;29.50;68.80;;;;;;5084438;28;19959;-83
2023/09/04 11:27:24;;;;;;;;;;;29.40;70.00;;;;;;5089246;28;20020;-78
2023/09/04 11:29:50;;;;;;;;;;;29.50;67.50;;;;;;5093755;28;19915;-80
2023/09/04 11:32:16;;;;;;;;;;;29.60;68.50;;;;;;5096027;28;19910;-80
2023/09/04 11:34:43;;;;;;;;;;;29.50;68.20;;;;;;5096138;28;20675;-83
2023/09/04 11:37:08;;;;;;;;;;;29.70;66.60;;;;;;5095806;28;19904;-80
2023/09/04 11:39:34;;;;;;;;;;;29.70;66.30;;;;;;5077492;28;19909;-82
2023/09/04 11:42:00;;;;;;;;;;;29.80;65.80;;;;;;5076641;28;19912;-84
2023/09/04 11:44:25;;;;;;;;;;;29.90;64.60;;;;;;5084192;28;19908;-81
2023/09/04 11:46:51;;;;;;;;;;;29.90;65.20;;;;;;5091069;28;19923;-80
2023/09/04 11:49:16;;;;;;;;;;;29.90;64.70;;;;;;5083957;28;19911;-82
2023/09/04 11:51:44;;;;;;;;;;;30.00;62.80;;;;;;5087601;28;19943;-82
2023/09/04 11:54:10;;;;;;;;;;;29.80;61.80;;;;;;5079603;28;19911;-74
2023/09/04 11:56:36;;;;;;;;;;;29.80;62.70;;;;;;5081693;28;19963;-73
2023/09/04 11:59:04;;;;;;;;;;;30.00;63.90;;;;;;5081731;28;20435;-78
2023/09/04 12:01:30;;;;;;;;;;;30.20;64.30;;;;;;5075173;28;19915;-74
2023/09/04 12:03:55;;;;;;;;;;;30.20;62.90;;;;;;5087875;28;19908;-77
2023/09/04 12:06:30;;;;;;;;;;;30.00;62.40;;;;;;5095431;28;19911;-75
2023/09/04 12:08:55;;;;;;;;;;;30.10;62.10;;;;;;5095473;28;20418;-78
2023/09/04 12:11:21;;;;;;;;;;;30.20;62.70;;;;;;5095546;28;19904;-77
2023/09/04 12:13:47;;;;;;;;;;;30.20;60.80;;;;;;5092012;28;19911;-76
2023/09/04 12:16:15;;;;;;;;;;;30.20;63.40;;;;;;5082792;28;19915;-77
2023/09/04 12:18:41;;;;;;;;;;;30.40;62.10;;;;;;5093411;28;20073;-75
2023/09/04 12:21:08;;;;;;;;;;;30.20;62.20;;;;;;5093754;28;19955;-80
2023/09/04 12:23:39;;;;;;;;;;;30.40;62.70;;;;;;5091919;28;19908;-79
2023/09/04 12:26:05;;;;;;;;;;;30.40;61.30;;;;;;5093853;28;19910;-78
2023/09/04 12:28:30;;;;;;;;;;;30.40;61.20;;;;;;5093636;28;20400;-77
2023/09/04 12:30:56;;;;;;;;;;;30.60;62.10;;;;;;5083461;28;19920;-76
2023/09/04 12:33:28;;;;;;;;;;;30.60;59.90;;;;;;5096900;28;19918;-77
2023/09/04 12:35:59;;;;;;;;;;;30.50;59.50;;;;;;5099406;28;20260;-81
2023/09/04 12:38:24;;;;;;;;;;;30.40;59.60;;;;;;5097047;28;19912;-78
2023/09/04 12:40:50;;;;;;;;;;;30.40;59.60;;;;;;5099643;28;19904;-79
2023/09/04 12:43:15;;;;;;;;;;;30.30;58.60;;;;;;5097488;28;19904;-79
2023/09/04 12:45:42;;;;;;;;;;;30.40;58.50;;;;;;5096677;28;19920;-78
2023/09/04 12:48:14;;;;;;;;;;;30.50;56.70;;;;;;5086008;28;20012;-77
2023/09/04 12:50:40;;;;;;;;;;;30.40;57.50;;;;;;5099060;28;19912;-80
2023/09/04 12:53:05;;;;;;;;;;;30.50;56.30;;;;;;5099163;28;19912;-78
2023/09/04 12:55:31;;;;;;;;;;;30.50;57.80;;;;;;5085469;28;19904;-75
2023/09/04 12:58:00;;;;;;;;;;;30.60;57.30;;;;;;5090570;28;19916;-75
2023/09/04 13:00:27;;;;;;;;;;;30.70;56.70;;;;;;5098558;28;19912;-79
2023/09/04 13:02:53;;;;;;;;;;;30.80;55.40;;;;;;5098976;28;19962;-79
2023/09/04 13:05:19;;;;;;;;;;;30.80;57.50;;;;;;5097125;28;20375;-76
2023/09/04 13:07:44;;;;;;;;;;;30.80;56.80;;;;;;5098685;28;19904;-78
2023/09/04 13:10:10;;;;;;;;;;;30.70;57.20;;;;;;5097362;28;19930;-76
2023/09/04 13:12:37;;;;;;;;;;;30.60;55.90;;;;;;5098717;28;19908;-76
2023/09/04 13:15:03;;;;;;;;;;;30.60;56.50;;;;;;5098699;28;19935;-77
2023/09/04 13:17:28;;;;;;;;;;;30.50;55.70;;;;;;5097234;28;19908;-77
2023/09/04 13:19:54;;;;;;;;;;;30.60;56.00;;;;;;5097109;28;20382;-77
2023/09/04 13:22:19;;;;;;;;;;;30.70;55.40;;;;;;5090425;28;19990;-77
2023/09/04 13:24:45;;;;;;;;;;;30.80;54.80;;;;;;5098612;28;19911;-76
2023/09/04 13:27:11;;;;;;;;;;;30.90;56.20;;;;;;5098214;28;19922;-78
2023/09/04 13:29:37;;;;;;;;;;;30.90;56.00;;;;;;5098367;28;19958;-80
2023/09/04 13:32:02;;;;;;;;;;;30.70;55.40;;;;;;5096982;28;19907;-79
2023/09/04 13:34:28;;;;;;;;;;;30.70;55.80;;;;;;5084228;28;19908;-77
2023/09/04 13:36:54;;;;;;;;;;;30.60;55.10;;;;;;5098289;28;20697;-77
2023/09/04 13:39:19;;;;;;;;;;;30.80;55.30;;;;;;5098127;28;19977;-79
2023/09/04 13:41:45;;;;;;;;;;;30.90;55.10;;;;;;5096645;28;19958;-80
2023/09/04 13:44:10;;;;;;;;;;;31.00;54.50;;;;;;5096559;28;19999;-76
2023/09/04 13:46:36;;;;;;;;;;;30.90;55.00;;;;;;5097794;28;19916;-77
2023/09/04 13:49:02;;;;;;;;;;;30.90;55.30;;;;;;5096634;28;19912;-77
2023/09/04 13:51:27;;;;;;;;;;;30.90;55.20;;;;;;5092954;28;19904;-79
2023/09/04 13:53:53;;;;;;;;;;;30.80;55.90;;;;;;5089751;28;20452;-77
2023/09/04 13:56:18;;;;;;;;;;;30.60;55.60;;;;;;5097849;28;19908;-79
2023/09/04 13:58:44;;;;;;;;;;;30.60;56.50;;;;;;5097462;28;19912;-77
2023/09/04 14:01:13;;;;;;;;;;;30.60;56.30;;;;;;5097487;28;20362;-81
2023/09/04 14:03:38;;;;;;;;;;;30.60;57.00;;;;;;5097789;28;19904;-76
2023/09/04 14:06:04;;;;;;;;;;;30.70;56.00;;;;;;5097818;28;19914;-74
2023/09/04 14:08:29;;;;;;;;;;;30.90;57.40;;;;;;5097255;28;19908;-76
2023/09/04 14:10:55;;;;;;;;;;;31.10;56.00;;;;;;5095530;28;19986;-75
2023/09/04 14:13:20;;;;;;;;;;;31.10;56.10;;;;;;5097319;28;20044;-76